createdAt,value
2019-03-21T00:01:20.638Z,16.13
2019-03-21T00:03:51.915Z,12.97
2019-03-21T00:06:21.143Z,16.30
2019-03-21T00:08:50.811Z,11.87
2019-03-21T00:11:58.238Z,15.60
2019-03-21T00:14:33.228Z,15.73
2019-03-21T00:17:05.028Z,14.00
2019-03-21T00:19:34.264Z,13.43
2019-03-21T00:22:03.669Z,12.83
2019-03-21T00:24:32.982Z,13.80
2019-03-21T00:27:02.237Z,13.53
2019-03-21T00:29:31.491Z,17.33
2019-03-21T00:32:00.803Z,17.23
2019-03-21T00:34:30.056Z,13.53
2019-03-21T00:36:59.302Z,12.93
2019-03-21T00:39:48.000Z,15.00
2019-03-21T00:42:17.255Z,14.17
2019-03-21T00:44:46.493Z,15.77
2019-03-21T00:47:16.091Z,18.90
2019-03-21T00:49:45.355Z,16.30
2019-03-21T00:52:14.598Z,12.57
2019-03-21T00:54:43.861Z,19.03
2019-03-21T00:57:13.121Z,12.67
2019-03-21T00:59:42.358Z,14.40
2019-03-21T01:02:11.694Z,19.90
2019-03-21T01:04:40.950Z,15.87
2019-03-21T01:07:10.299Z,19.83
2019-03-21T01:09:39.606Z,12.73
2019-03-21T01:12:08.851Z,13.27
2019-03-21T01:14:38.102Z,15.10
2019-03-21T01:17:07.448Z,17.83
2019-03-21T01:19:56.016Z,15.93
2019-03-21T01:22:25.287Z,14.77
2019-03-21T01:24:54.523Z,17.47
2019-03-21T01:27:23.758Z,15.23
2019-03-21T01:29:53.017Z,14.80
2019-03-21T01:32:22.250Z,23.93
2019-03-21T01:34:51.511Z,17.13
2019-03-21T01:37:20.742Z,17.13
2019-03-21T01:39:50.125Z,17.20
2019-03-21T01:42:19.576Z,18.97
2019-03-21T01:44:48.828Z,15.70
2019-03-21T01:47:18.066Z,18.40
2019-03-21T01:49:47.395Z,14.93
2019-03-21T01:52:16.647Z,18.00
2019-03-21T01:54:47.214Z,19.10
2019-03-21T01:57:29.267Z,16.90
2019-03-21T01:59:58.495Z,18.40
2019-03-21T02:02:27.740Z,19.83
2019-03-21T02:04:56.995Z,17.47
2019-03-21T02:07:26.247Z,20.60
2019-03-21T02:09:55.562Z,22.40
2019-03-21T02:12:24.867Z,18.77
2019-03-21T02:14:54.166Z,21.93
2019-03-21T02:17:23.440Z,27.80
2019-03-21T02:19:52.671Z,22.73
2019-03-21T02:22:21.935Z,21.27
2019-03-21T02:24:51.179Z,22.00
2019-03-21T02:27:20.447Z,20.90
2019-03-21T02:29:49.721Z,21.00
2019-03-21T02:32:38.379Z,21.53
2019-03-21T02:35:26.963Z,22.70
2019-03-21T02:37:56.223Z,22.20
2019-03-21T02:40:26.416Z,21.97
2019-03-21T02:42:55.665Z,21.43
2019-03-21T02:45:24.912Z,22.77
2019-03-21T02:47:54.149Z,26.27
2019-03-21T02:50:29.090Z,25.87
2019-03-21T02:52:58.315Z,25.43
2019-03-21T02:55:27.538Z,21.70
2019-03-21T02:57:56.799Z,20.17
2019-03-21T03:00:31.970Z,22.53
2019-03-21T03:03:01.928Z,25.10
2019-03-21T03:05:32.768Z,22.57
2019-03-21T03:08:02.163Z,22.37
2019-03-21T03:10:46.116Z,24.40
2019-03-21T03:13:34.738Z,22.60
2019-03-21T03:16:04.122Z,21.33
2019-03-21T03:18:33.418Z,19.30
2019-03-21T03:21:02.692Z,24.43
2019-03-21T03:23:51.313Z,24.97
2019-03-21T03:26:20.582Z,23.13
2019-03-21T03:28:49.796Z,26.57
2019-03-21T03:31:19.082Z,22.37
2019-03-21T03:33:48.376Z,23.83
2019-03-21T03:36:17.694Z,27.63
2019-03-21T03:39:06.846Z,22.87
2019-03-21T03:41:36.259Z,28.07
2019-03-21T03:44:24.883Z,23.73
2019-03-21T03:46:54.156Z,22.20
2019-03-21T03:49:23.418Z,20.97
2019-03-21T03:51:52.655Z,26.50
2019-03-21T03:54:22.016Z,26.47
2019-03-21T03:56:51.338Z,26.10
2019-03-21T03:59:20.585Z,24.27
2019-03-21T04:01:49.980Z,25.87
2019-03-21T04:04:19.222Z,31.03
2019-03-21T04:06:48.547Z,26.50
2019-03-21T04:09:18.012Z,29.70
2019-03-21T04:11:47.912Z,24.80
2019-03-21T04:14:17.151Z,24.00
2019-03-21T04:16:46.454Z,26.13
2019-03-21T04:19:15.709Z,29.20
2019-03-21T04:21:44.949Z,27.00
2019-03-21T04:24:14.237Z,22.17
2019-03-21T04:26:43.497Z,25.57
2019-03-21T04:29:12.804Z,23.53
2019-03-21T04:31:42.071Z,25.47
2019-03-21T04:34:11.314Z,20.90
2019-03-21T04:36:40.589Z,30.70
2019-03-21T04:39:10.453Z,22.77
2019-03-21T04:41:41.961Z,27.30
2019-03-21T04:44:11.272Z,25.13
2019-03-21T04:46:40.617Z,26.10
2019-03-21T04:49:10.972Z,36.70
2019-03-21T04:51:40.246Z,26.70
2019-03-21T04:54:09.495Z,31.63
2019-03-21T04:56:38.962Z,28.90
2019-03-21T04:59:08.203Z,29.50
2019-03-21T05:01:37.522Z,27.37
2019-03-21T05:04:06.800Z,31.03
2019-03-21T05:06:36.038Z,28.10
2019-03-21T05:09:07.397Z,27.43
2019-03-21T05:11:36.717Z,29.27
2019-03-21T05:20:36.939Z,30.10
2019-03-21T05:23:09.497Z,27.03
2019-03-21T05:25:59.381Z,28.77
2019-03-21T05:28:30.362Z,26.80
2019-03-21T05:31:24.444Z,31.07
2019-03-21T05:33:59.478Z,26.30
2019-03-21T05:36:28.723Z,29.80
2019-03-21T05:38:57.971Z,30.43
2019-03-21T05:41:27.195Z,25.27
2019-03-21T05:44:11.486Z,30.77
2019-03-21T05:46:40.734Z,35.90
2019-03-21T05:49:09.975Z,27.23
2019-03-21T05:51:58.656Z,30.40
2019-03-21T05:54:27.910Z,31.23
2019-03-21T05:56:57.171Z,31.63
2019-03-21T05:59:26.403Z,30.63
2019-03-21T06:01:55.682Z,28.33
2019-03-21T06:04:34.905Z,30.40
2019-03-21T06:07:25.553Z,26.77
2019-03-21T06:09:57.359Z,24.83
2019-03-21T06:12:26.644Z,34.43
2019-03-21T06:15:01.685Z,32.50
2019-03-21T06:17:31.838Z,28.50
2019-03-21T06:20:06.762Z,31.47
2019-03-21T06:22:48.243Z,28.53
2019-03-21T06:26:03.385Z,29.33
2019-03-21T06:28:32.616Z,28.73
2019-03-21T06:31:01.875Z,24.83
2019-03-21T06:33:31.119Z,32.40
2019-03-21T06:36:00.442Z,26.60
2019-03-21T06:38:31.747Z,29.27
2019-03-21T06:41:01.066Z,28.50
2019-03-21T06:43:30.324Z,27.60
2019-03-21T06:45:59.839Z,27.10
2019-03-21T06:48:29.191Z,38.07
2019-03-21T06:51:17.759Z,30.43
2019-03-21T06:53:47.021Z,28.90
2019-03-21T06:56:16.296Z,26.57
2019-03-21T06:58:45.517Z,26.53
2019-03-21T07:01:34.115Z,30.37
2019-03-21T07:04:07.362Z,30.10
2019-03-21T07:06:34.322Z,27.03
2019-03-21T07:09:05.090Z,24.87
2019-03-21T07:11:34.330Z,31.40
2019-03-21T07:14:03.704Z,26.13
2019-03-21T07:16:32.993Z,24.80
2019-03-21T07:19:02.331Z,33.40
2019-03-21T07:21:50.934Z,25.30
2019-03-21T07:24:20.171Z,22.00
2019-03-21T07:26:49.465Z,27.10
2019-03-21T07:29:18.781Z,24.70
2019-03-21T07:31:48.014Z,22.80
2019-03-21T07:34:17.283Z,28.67
2019-03-21T07:36:46.526Z,28.07
2019-03-21T07:39:15.792Z,25.30
2019-03-21T07:41:45.047Z,27.33
2019-03-21T07:44:14.379Z,25.73
2019-03-21T07:46:43.632Z,24.07
2019-03-21T07:49:12.951Z,30.50
2019-03-21T07:51:44.857Z,26.47
2019-03-21T07:54:13.142Z,29.17
2019-03-21T07:56:42.418Z,24.80
2019-03-21T07:59:11.666Z,27.70
2019-03-21T08:01:40.924Z,22.90
2019-03-21T08:04:10.228Z,21.53
2019-03-21T08:06:39.470Z,25.00
2019-03-21T08:09:08.817Z,24.53
2019-03-21T08:11:38.076Z,26.27
2019-03-21T08:14:07.314Z,25.07
2019-03-21T08:16:36.559Z,24.63
2019-03-21T08:19:05.828Z,25.80
2019-03-21T08:21:35.111Z,23.90
2019-03-21T08:24:04.503Z,26.97
2019-03-21T08:26:33.854Z,26.80
2019-03-21T08:29:03.241Z,26.17
2019-03-21T08:31:32.574Z,22.47
2019-03-21T08:34:01.871Z,24.43
2019-03-21T08:36:31.137Z,22.27
2019-03-21T08:39:00.439Z,21.23
2019-03-21T08:41:29.786Z,20.97
2019-03-21T08:43:59.018Z,21.20
2019-03-21T08:46:28.287Z,29.77
2019-03-21T08:48:57.541Z,28.53
2019-03-21T08:51:26.782Z,27.97
2019-03-21T08:53:56.019Z,22.57
2019-03-21T08:56:25.283Z,22.93
2019-03-21T08:58:54.530Z,21.53
2019-03-21T09:01:23.832Z,20.23
2019-03-21T09:03:53.130Z,21.00
2019-03-21T09:06:22.385Z,19.70
2019-03-21T09:08:51.659Z,21.33
2019-03-21T09:11:20.941Z,20.27
2019-03-21T09:13:50.187Z,23.73
2019-03-21T09:16:19.444Z,26.50
2019-03-21T09:18:48.702Z,20.47
2019-03-21T09:21:20.010Z,22.93
2019-03-21T09:23:48.893Z,18.40
2019-03-21T09:26:18.203Z,21.17
2019-03-21T09:28:47.531Z,18.77
2019-03-21T09:31:18.359Z,18.37
2019-03-21T09:33:47.591Z,17.50
2019-03-21T09:36:16.926Z,18.33
2019-03-21T09:38:46.167Z,15.83
2019-03-21T09:41:15.497Z,17.00
2019-03-21T09:43:44.735Z,18.73
2019-03-21T09:46:14.110Z,15.80
2019-03-21T09:48:43.406Z,17.10
2019-03-21T09:51:12.675Z,14.30
2019-03-21T09:53:47.718Z,15.23
2019-03-21T09:56:17.001Z,16.33
2019-03-21T09:58:46.321Z,14.50
2019-03-21T10:01:34.938Z,13.50
2019-03-21T10:04:04.345Z,11.83
2019-03-21T10:06:33.595Z,12.30
2019-03-21T10:09:04.427Z,14.43
2019-03-21T10:11:33.689Z,14.73
2019-03-21T10:14:03.034Z,15.23
2019-03-21T10:16:32.429Z,14.53
2019-03-21T10:19:01.709Z,15.87
2019-03-21T10:21:50.267Z,14.77
2019-03-21T10:24:19.579Z,13.77
2019-03-21T10:26:49.019Z,14.33
2019-03-21T10:29:18.292Z,13.23
2019-03-21T10:31:47.550Z,14.67
2019-03-21T10:34:16.891Z,13.00
2019-03-21T10:36:46.126Z,14.30
2019-03-21T10:39:15.407Z,14.80
2019-03-21T10:41:44.719Z,15.70
2019-03-21T10:44:13.980Z,14.67
2019-03-21T10:46:43.392Z,14.70
2019-03-21T10:49:13.790Z,14.93
2019-03-21T10:52:02.407Z,15.20
2019-03-21T10:54:31.652Z,18.07
2019-03-21T10:57:01.086Z,13.90
2019-03-21T10:59:30.353Z,15.63
2019-03-21T11:02:07.355Z,14.47
2019-03-21T11:04:30.621Z,13.47
2019-03-21T11:07:01.879Z,13.90
2019-03-21T11:09:50.472Z,14.33
2019-03-21T11:12:21.236Z,14.53
2019-03-21T11:14:50.465Z,13.73
2019-03-21T11:17:20.685Z,13.27
2019-03-21T11:19:50.038Z,13.73
2019-03-21T11:22:19.270Z,13.30
2019-03-21T11:24:48.556Z,14.00
2019-03-21T11:27:17.877Z,12.60
2019-03-21T11:29:47.109Z,12.70
2019-03-21T11:32:35.803Z,12.93
2019-03-21T11:35:07.818Z,11.97
2019-03-21T11:37:37.092Z,11.67
2019-03-21T11:40:06.421Z,11.60
2019-03-21T11:42:35.675Z,10.83
2019-03-21T11:45:07.167Z,11.73
2019-03-21T11:47:41.770Z,11.43
2019-03-21T11:50:07.650Z,11.70
2019-03-21T11:52:36.904Z,11.97
2019-03-21T11:55:09.049Z,13.83
2019-03-21T11:57:57.725Z,13.73
2019-03-21T12:00:27.023Z,14.87
2019-03-21T12:02:56.275Z,13.40
2019-03-21T12:05:25.565Z,13.73
2019-03-21T12:07:54.839Z,13.00
2019-03-21T12:10:24.169Z,14.77
2019-03-21T12:12:53.447Z,12.83
2019-03-21T12:15:24.528Z,12.30
2019-03-21T12:17:53.766Z,14.03
2019-03-21T12:20:31.310Z,12.73
2019-03-21T12:23:00.607Z,13.10
2019-03-21T12:25:30.066Z,12.10
2019-03-21T12:28:01.382Z,13.43
2019-03-21T12:30:38.427Z,14.43
2019-03-21T12:33:08.040Z,14.27
2019-03-21T12:35:44.171Z,13.67
2019-03-21T12:38:13.559Z,13.33
2019-03-21T12:40:43.890Z,12.60
2019-03-21T12:43:13.137Z,16.07
2019-03-21T12:45:42.407Z,16.13
2019-03-21T12:48:11.670Z,14.40
2019-03-21T12:50:41.002Z,13.87
2019-03-21T12:53:10.309Z,14.03
2019-03-21T12:55:39.662Z,14.40
2019-03-21T12:58:28.237Z,12.43
2019-03-21T13:00:57.508Z,12.57
2019-03-21T13:03:26.770Z,11.67
2019-03-21T13:05:56.040Z,11.13
2019-03-21T13:08:33.767Z,12.40
2019-03-21T13:11:00.823Z,12.67
2019-03-21T13:13:48.647Z,12.27
2019-03-21T13:16:18.007Z,11.83
2019-03-21T13:18:47.299Z,10.80
2019-03-21T13:21:16.524Z,11.67
2019-03-21T13:23:45.818Z,11.87
2019-03-21T13:26:15.080Z,14.20
2019-03-21T13:28:44.320Z,11.00
2019-03-21T13:31:13.627Z,13.37
2019-03-21T13:33:42.911Z,11.47
2019-03-21T13:36:12.234Z,12.17
2019-03-21T13:38:41.505Z,11.30
2019-03-21T13:41:30.108Z,12.60
2019-03-21T13:43:59.366Z,10.70
2019-03-21T13:46:28.615Z,14.20
2019-03-21T13:48:57.967Z,10.40
2019-03-21T13:51:27.279Z,10.50
2019-03-21T13:53:56.523Z,10.97
2019-03-21T13:56:25.856Z,10.20
2019-03-21T13:58:55.150Z,11.93
2019-03-21T14:01:24.445Z,13.10
2019-03-21T14:03:53.690Z,10.70
2019-03-21T14:06:22.937Z,10.73
2019-03-21T14:08:52.175Z,11.50
2019-03-21T14:11:21.473Z,11.47
2019-03-21T14:13:50.774Z,14.20
2019-03-21T14:16:20.087Z,11.60
2019-03-21T14:18:49.335Z,10.47
2019-03-21T14:21:18.593Z,9.70
2019-03-21T14:23:47.863Z,13.60
2019-03-21T14:26:36.453Z,10.90
2019-03-21T14:29:12.681Z,11.60
2019-03-21T14:31:56.128Z,11.80
2019-03-21T14:34:25.416Z,13.17
2019-03-21T14:36:54.796Z,11.23
2019-03-21T14:39:24.121Z,11.17
2019-03-21T14:41:53.418Z,10.37
2019-03-21T14:44:22.642Z,10.77
2019-03-21T14:46:51.915Z,10.77
2019-03-21T14:49:21.179Z,11.90
2019-03-21T14:51:50.514Z,12.63
2019-03-21T14:54:19.774Z,11.97
2019-03-21T14:56:49.043Z,12.67
2019-03-21T14:59:18.326Z,12.63
2019-03-21T15:01:47.677Z,11.47
2019-03-21T15:04:17.578Z,12.47
2019-03-21T15:06:46.810Z,13.43
2019-03-21T15:09:16.140Z,17.10
2019-03-21T15:11:45.490Z,13.70
2019-03-21T15:14:14.785Z,14.70
2019-03-21T15:16:44.026Z,12.10
2019-03-21T15:19:13.298Z,13.13
2019-03-21T15:21:42.555Z,12.70
2019-03-21T15:24:11.923Z,13.07
2019-03-21T15:26:41.242Z,12.17
2019-03-21T15:29:10.490Z,13.93
2019-03-21T15:31:39.831Z,16.23
2019-03-21T15:34:28.447Z,12.13
2019-03-21T15:36:57.820Z,12.73
2019-03-21T15:39:27.158Z,13.17
2019-03-21T15:41:56.448Z,14.90
2019-03-21T15:44:25.713Z,14.40
2019-03-21T15:46:55.052Z,12.03
2019-03-21T15:49:24.455Z,13.63
2019-03-21T15:51:53.796Z,12.83
2019-03-21T15:54:23.048Z,10.67
2019-03-21T15:56:53.963Z,12.03
2019-03-21T15:59:23.855Z,12.27
2019-03-21T16:01:53.202Z,11.80
2019-03-21T16:04:22.599Z,12.70
2019-03-21T16:06:51.862Z,14.23
2019-03-21T16:09:21.117Z,12.23
2019-03-21T16:11:50.378Z,12.97
2019-03-21T16:14:19.661Z,13.00
2019-03-21T16:17:08.271Z,12.00
2019-03-21T16:19:37.539Z,12.50
2019-03-21T16:22:07.042Z,18.20
2019-03-21T16:24:36.364Z,13.67
2019-03-21T16:27:05.771Z,16.00
2019-03-21T16:29:35.046Z,14.63
2019-03-21T16:32:04.481Z,17.03
2019-03-21T16:34:33.747Z,13.80
2019-03-21T16:37:03.060Z,16.40
2019-03-21T16:39:32.414Z,13.83
2019-03-21T16:42:01.754Z,12.70
2019-03-21T16:44:50.324Z,12.63
2019-03-21T16:47:19.637Z,13.83
2019-03-21T16:50:09.818Z,14.33
2019-03-21T16:52:39.151Z,12.90
2019-03-21T16:55:12.586Z,13.93
2019-03-21T16:57:42.101Z,14.47
2019-03-21T17:00:35.184Z,12.80
2019-03-21T17:03:05.079Z,12.60
2019-03-21T17:05:34.425Z,13.43
2019-03-21T17:08:23.031Z,12.40
2019-03-21T17:10:52.329Z,12.73
2019-03-21T17:13:21.644Z,14.40
2019-03-21T17:15:50.958Z,13.00
2019-03-21T17:18:20.243Z,13.93
2019-03-21T17:20:49.542Z,12.67
2019-03-21T17:23:18.853Z,12.80
2019-03-21T17:25:48.197Z,12.27
2019-03-21T17:28:17.436Z,13.90
2019-03-21T17:30:46.808Z,13.20
2019-03-21T17:33:16.071Z,15.00
2019-03-21T17:35:45.499Z,13.83
2019-03-21T17:38:14.769Z,13.30
2019-03-21T17:40:44.038Z,12.23
2019-03-21T17:43:13.364Z,9.93
2019-03-21T17:45:42.760Z,15.13
2019-03-21T17:48:12.057Z,9.67
2019-03-21T17:50:41.350Z,9.60
2019-03-21T17:53:29.955Z,10.87
2019-03-21T17:55:59.307Z,9.67
2019-03-21T17:58:28.791Z,11.37
2019-03-21T18:00:58.270Z,14.33
2019-03-21T18:03:27.975Z,10.37
2019-03-21T18:05:57.210Z,10.97
2019-03-21T18:08:26.539Z,12.17
2019-03-21T18:11:15.181Z,14.83
2019-03-21T18:13:44.537Z,12.80
2019-03-21T18:16:13.921Z,11.90
2019-03-21T18:18:43.254Z,12.90
2019-03-21T18:21:12.532Z,14.37
2019-03-21T18:23:41.798Z,15.87
2019-03-21T18:26:11.212Z,16.33
2019-03-21T18:28:40.460Z,19.07
2019-03-21T18:31:09.788Z,18.50
2019-03-21T18:33:39.050Z,16.47
2019-03-21T18:36:08.413Z,16.00
2019-03-21T18:38:37.670Z,17.47
2019-03-21T18:41:07.221Z,16.67
2019-03-21T18:43:36.672Z,15.40
2019-03-21T18:46:25.279Z,15.33
2019-03-21T18:48:54.557Z,14.37
2019-03-21T18:51:32.076Z,16.47
2019-03-21T18:54:01.341Z,17.53
2019-03-21T18:56:30.632Z,19.53
2019-03-21T18:59:19.277Z,22.90
2019-03-21T19:01:58.001Z,16.23
2019-03-21T19:04:19.614Z,23.43
2019-03-21T19:07:08.247Z,15.13
2019-03-21T19:09:37.504Z,16.83
2019-03-21T19:12:08.235Z,18.37
2019-03-21T19:14:37.576Z,18.87
2019-03-21T19:17:06.844Z,17.10
2019-03-21T19:19:36.187Z,27.13
2019-03-21T19:22:05.637Z,22.33
2019-03-21T19:24:34.971Z,17.90
2019-03-21T19:27:04.306Z,16.67
2019-03-21T19:29:33.643Z,17.40
2019-03-21T19:32:02.917Z,17.40
2019-03-21T19:34:32.223Z,17.13
2019-03-21T19:37:01.717Z,17.63
2019-03-21T19:39:30.952Z,19.07
2019-03-21T19:42:00.267Z,20.07
2019-03-21T19:44:29.606Z,26.23
2019-03-21T19:47:01.336Z,20.17
2019-03-21T19:49:29.917Z,19.37
2019-03-21T19:52:00.858Z,20.83
2019-03-21T19:54:30.215Z,19.20
2019-03-21T19:56:59.544Z,19.87
2019-03-21T19:59:28.907Z,17.47
2019-03-21T20:01:58.297Z,18.13
2019-03-21T20:04:27.582Z,23.83
2019-03-21T20:06:57.019Z,20.47
2019-03-21T20:09:26.351Z,18.93
2019-03-21T20:11:55.676Z,20.23
2019-03-21T20:14:24.995Z,17.33
2019-03-21T20:16:54.247Z,19.17
2019-03-21T20:19:23.520Z,19.67
2019-03-21T20:21:52.772Z,21.23
2019-03-21T20:24:22.036Z,18.93
2019-03-21T20:26:53.999Z,28.33
2019-03-21T20:29:23.256Z,27.87
2019-03-21T20:31:52.522Z,21.10
2019-03-21T20:34:41.108Z,24.77
2019-03-21T20:37:10.381Z,21.97
2019-03-21T20:39:39.639Z,24.87
2019-03-21T20:42:08.915Z,26.27
2019-03-21T20:44:39.138Z,22.53
2019-03-21T20:47:27.802Z,25.57
2019-03-21T20:49:57.059Z,25.63
2019-03-21T20:52:26.449Z,22.63
2019-03-21T20:54:55.708Z,24.67
2019-03-21T20:57:24.997Z,22.07
2019-03-21T20:59:54.411Z,26.70
2019-03-21T21:02:23.730Z,21.80
2019-03-21T21:04:53.115Z,20.40
2019-03-21T21:07:22.459Z,20.80
2019-03-21T21:09:51.817Z,21.80
2019-03-21T21:12:40.412Z,21.40
2019-03-21T21:15:12.431Z,21.47
2019-03-21T21:17:43.119Z,20.87
2019-03-21T21:20:14.852Z,20.17
2019-03-21T21:22:44.119Z,23.10
2019-03-21T21:25:13.920Z,22.42
2019-03-21T21:27:49.361Z,22.53
2019-03-21T21:30:19.436Z,25.70
2019-03-21T21:32:48.857Z,22.57
2019-03-21T21:35:18.120Z,23.10
2019-03-21T21:37:47.464Z,24.03
2019-03-21T21:40:18.105Z,24.93
2019-03-21T21:42:47.620Z,25.77
2019-03-21T21:45:17.719Z,24.83
2019-03-21T21:47:47.127Z,30.47
2019-03-21T21:50:17.707Z,23.33
2019-03-21T21:53:06.297Z,24.63
2019-03-21T21:55:35.790Z,23.77
2019-03-21T21:58:05.019Z,24.60
2019-03-21T22:00:34.342Z,22.90
2019-03-21T22:03:11.022Z,26.07
2019-03-21T22:05:40.283Z,24.20
2019-03-21T22:08:09.568Z,26.57
2019-03-21T22:10:38.816Z,26.70
2019-03-21T22:13:08.060Z,24.43
2019-03-21T22:15:37.308Z,25.50
2019-03-21T22:18:09.370Z,27.20
2019-03-21T22:20:58.026Z,26.23
2019-03-21T22:23:27.387Z,28.20
2019-03-21T22:25:56.615Z,26.43
2019-03-21T22:28:25.919Z,30.30
2019-03-21T22:30:55.221Z,27.90
2019-03-21T22:33:24.488Z,27.60
2019-03-21T22:35:53.791Z,37.43
2019-03-21T22:38:23.085Z,33.90
2019-03-21T22:40:52.376Z,28.40
2019-03-21T22:43:21.660Z,27.77
2019-03-21T22:45:50.927Z,27.77
2019-03-21T22:48:20.159Z,29.83
2019-03-21T22:51:08.773Z,30.73
2019-03-21T22:53:38.014Z,35.33
2019-03-21T22:56:07.257Z,33.83
2019-03-21T22:58:36.704Z,37.57
2019-03-21T23:01:06.205Z,38.60
2019-03-21T23:03:35.534Z,33.27
2019-03-21T23:06:04.971Z,34.10
2019-03-21T23:08:34.290Z,38.17
2019-03-21T23:11:03.603Z,40.53
2019-03-21T23:13:32.892Z,33.67
2019-03-21T23:16:02.220Z,34.80
2019-03-21T23:18:31.506Z,37.93
2019-03-21T23:21:00.737Z,33.60
2019-03-21T23:23:30.078Z,36.57
2019-03-21T23:25:59.305Z,34.90
2019-03-21T23:28:28.616Z,37.13
2019-03-21T23:30:57.894Z,34.07
2019-03-21T23:33:27.131Z,31.33
2019-03-21T23:36:15.749Z,33.10
2019-03-21T23:38:44.982Z,35.23
2019-03-21T23:41:14.231Z,34.97
2019-03-21T23:43:43.517Z,35.90
2019-03-21T23:46:12.859Z,31.97
2019-03-21T23:48:42.091Z,32.07
2019-03-21T23:51:11.335Z,30.53
2019-03-21T23:54:00.026Z,33.43
2019-03-21T23:56:29.279Z,34.63
2019-03-21T23:58:58.540Z,36.00
